createdAt,value
2018-01-20T16:12:48.988Z,4.47
2018-01-20T16:15:16.612Z,6.90
2018-01-20T16:17:44.199Z,6.65
2018-01-20T16:20:12.593Z,6.68
2018-01-20T16:22:40.167Z,5.80
2018-01-20T16:25:07.773Z,5.87
2018-01-20T16:27:35.332Z,5.82
2018-01-20T16:30:02.897Z,7.35
2018-01-20T16:32:31.323Z,5.82
2018-01-20T16:35:09.544Z,7.25
2018-01-20T16:37:37.924Z,6.25
2018-01-20T16:40:06.231Z,6.05
2018-01-20T16:42:33.800Z,4.50
2018-01-20T16:45:01.299Z,6.45
2018-01-20T16:47:29.166Z,5.53
2018-01-20T16:49:56.702Z,6.95
2018-01-20T16:52:24.440Z,5.97
2018-01-20T16:54:52.046Z,6.90
2018-01-20T16:57:19.751Z,6.45
2018-01-20T16:59:48.040Z,6.57
2018-01-20T17:02:15.574Z,6.05
2018-01-20T17:04:43.904Z,5.65
2018-01-20T17:07:11.540Z,8.05
2018-01-20T17:09:39.187Z,14.45
2018-01-20T17:12:06.963Z,5.97
2018-01-20T17:14:34.710Z,5.10
2018-01-20T17:17:02.971Z,6.57
2018-01-20T17:19:31.370Z,5.20
2018-01-20T17:21:58.916Z,5.15
2018-01-20T17:24:27.583Z,5.62
2018-01-20T17:26:55.415Z,5.22
2018-01-20T17:29:22.973Z,5.90
2018-01-20T17:31:50.659Z,6.75
2018-01-20T17:34:18.197Z,8.85
2018-01-20T17:36:45.760Z,7.30
2018-01-20T17:39:13.279Z,6.85
2018-01-20T17:41:40.815Z,6.60
2018-01-20T17:44:09.194Z,5.50
2018-01-20T17:46:37.656Z,6.50
2018-01-20T17:49:05.224Z,5.70
2018-01-20T17:51:32.920Z,5.62
2018-01-20T17:54:01.069Z,7.00
2018-01-20T17:56:29.479Z,8.60
2018-01-20T17:58:57.337Z,8.23
2018-01-20T18:01:24.887Z,7.05
2018-01-20T18:03:53.171Z,6.85
2018-01-20T18:06:20.799Z,7.82
2018-01-20T18:08:48.334Z,7.05
2018-01-20T18:11:15.926Z,6.35
2018-01-20T18:13:43.561Z,8.13
2018-01-20T18:16:11.168Z,6.78
2018-01-20T18:18:38.805Z,6.28
2018-01-20T18:21:07.059Z,6.70
2018-01-20T18:23:34.609Z,9.07
2018-01-20T18:26:02.222Z,8.57
2018-01-20T18:28:30.668Z,8.25
2018-01-20T18:30:58.411Z,7.07
2018-01-20T18:33:25.961Z,6.12
2018-01-20T18:35:53.610Z,7.40
2018-01-20T18:38:21.178Z,6.75
2018-01-20T18:40:48.806Z,6.40
2018-01-20T18:43:16.344Z,6.28
2018-01-20T18:45:44.829Z,7.05
2018-01-20T18:48:13.247Z,5.80
2018-01-20T18:50:40.941Z,7.90
2018-01-20T18:53:08.454Z,7.28
2018-01-20T18:55:36.006Z,7.20
2018-01-20T18:58:04.480Z,8.10
2018-01-20T19:00:32.172Z,8.27
2018-01-20T19:02:59.693Z,8.10
2018-01-20T19:05:28.021Z,8.23
2018-01-20T19:07:55.536Z,9.05
2018-01-20T19:10:23.830Z,9.65
2018-01-20T19:12:51.401Z,10.18
2018-01-20T19:15:18.936Z,12.80
2018-01-20T19:17:47.239Z,14.20
2018-01-20T19:20:14.786Z,13.32
2018-01-20T19:22:42.374Z,13.07
2018-01-20T19:25:10.018Z,9.05
2018-01-20T19:27:37.536Z,9.77
2018-01-20T19:30:05.121Z,9.20
2018-01-20T19:32:32.659Z,8.63
2018-01-20T19:35:01.039Z,9.52
2018-01-20T19:37:29.348Z,118.47
2018-01-20T19:39:56.926Z,54.97
2018-01-20T19:42:24.451Z,22.17
2018-01-20T19:44:52.046Z,82.22
2018-01-20T19:47:20.286Z,42.15
2018-01-20T19:49:48.707Z,12.00
2018-01-20T19:52:16.208Z,10.25
2018-01-20T19:54:44.568Z,10.18
2018-01-20T19:57:12.182Z,15.63
2018-01-20T19:59:39.747Z,15.15
2018-01-20T20:02:07.314Z,15.52
2018-01-20T20:04:34.886Z,33.60
2018-01-20T20:07:02.496Z,18.10
2018-01-20T20:09:30.783Z,19.00
2018-01-20T20:11:58.466Z,18.92
2018-01-20T20:14:25.983Z,136.45
2018-01-20T20:16:54.378Z,39.83
2018-01-20T20:19:21.916Z,19.40
2018-01-20T20:21:50.269Z,17.77
2018-01-20T20:24:17.846Z,21.27
2018-01-20T20:26:45.439Z,23.27
2018-01-20T20:29:13.702Z,22.40
2018-01-20T20:31:42.044Z,17.52
2018-01-20T20:34:09.546Z,36.38
2018-01-20T20:36:38.082Z,28.52
2018-01-20T20:39:05.719Z,21.77
2018-01-20T20:41:33.235Z,22.50
2018-01-20T20:44:01.902Z,21.55
2018-01-20T20:46:40.926Z,19.20
2018-01-20T20:49:08.455Z,21.90
2018-01-20T20:51:37.338Z,17.10
2018-01-20T20:54:06.675Z,15.20
2018-01-20T20:56:34.400Z,18.83
2018-01-20T20:59:01.968Z,15.93
2018-01-20T21:01:29.533Z,18.80
2018-01-20T21:03:57.102Z,21.33
2018-01-20T21:06:24.704Z,52.92
2018-01-20T21:08:53.022Z,20.12
2018-01-20T21:11:20.547Z,25.98
2018-01-20T21:13:48.834Z,22.67
2018-01-20T21:16:16.410Z,21.98
2018-01-20T21:18:43.956Z,17.50
2018-01-20T21:21:11.512Z,23.90
2018-01-20T21:23:39.232Z,17.77
2018-01-20T21:26:06.781Z,19.30
2018-01-20T21:28:34.300Z,23.58
2018-01-20T21:31:02.847Z,29.15
2018-01-20T21:33:30.348Z,21.23
2018-01-20T21:35:57.906Z,16.80
2018-01-20T21:38:25.457Z,16.10
2018-01-20T21:40:53.405Z,21.52
2018-01-20T21:43:21.765Z,19.00
2018-01-20T21:45:49.310Z,20.40
2018-01-20T21:48:16.840Z,27.35
2018-01-20T21:50:44.377Z,21.52
2018-01-20T21:53:11.947Z,21.48
2018-01-20T21:55:39.496Z,23.77
2018-01-20T21:58:07.020Z,24.80
2018-01-20T22:00:34.619Z,26.92
2018-01-20T22:03:02.185Z,28.95
2018-01-20T22:05:29.726Z,24.42
2018-01-20T22:07:57.286Z,30.00
2018-01-20T22:10:25.638Z,27.55
2018-01-20T22:12:53.163Z,27.50
2018-01-20T22:15:20.735Z,28.08
2018-01-20T22:17:48.347Z,31.20
2018-01-20T22:20:15.903Z,32.53
2018-01-20T22:22:43.446Z,36.00
2018-01-20T22:25:11.872Z,34.47
2018-01-20T22:27:39.396Z,33.85
2018-01-20T22:30:07.772Z,31.25
2018-01-20T22:32:36.051Z,30.25
2018-01-20T22:35:04.633Z,32.10
2018-01-20T22:37:32.910Z,32.47
2018-01-20T22:40:01.448Z,31.92
2018-01-20T22:42:28.986Z,33.55
2018-01-20T22:44:56.611Z,29.65
2018-01-20T22:47:24.887Z,31.35
2018-01-20T22:49:53.289Z,35.75
2018-01-20T22:52:21.062Z,41.58
2018-01-20T22:54:48.792Z,38.33
2018-01-20T22:57:17.204Z,37.15
2018-01-20T22:59:44.763Z,45.47
2018-01-20T23:02:12.343Z,41.78
2018-01-20T23:04:39.982Z,37.08
2018-01-20T23:07:07.654Z,37.50
2018-01-20T23:09:35.197Z,39.15
2018-01-20T23:12:02.789Z,39.20
2018-01-20T23:14:30.319Z,40.60
2018-01-20T23:16:57.855Z,36.42
2018-01-20T23:19:27.756Z,37.83
2018-01-20T23:21:55.342Z,36.75
2018-01-20T23:24:22.898Z,38.35
2018-01-20T23:26:50.441Z,42.78
2018-01-20T23:29:18.745Z,42.65
2018-01-20T23:31:46.256Z,45.72
2018-01-20T23:34:13.822Z,45.58
2018-01-20T23:36:41.409Z,47.20
2018-01-20T23:39:08.962Z,47.03
2018-01-20T23:41:37.247Z,41.90
2018-01-20T23:44:04.818Z,47.17
2018-01-20T23:46:32.330Z,51.88
2018-01-20T23:48:59.900Z,48.08
2018-01-20T23:51:28.190Z,58.00
2018-01-20T23:53:56.543Z,56.47
2018-01-20T23:56:24.049Z,53.65
2018-01-20T23:58:51.609Z,56.00
